createdAt,value
2016-11-28T04:01:09.963Z,1028.49
2016-11-28T04:01:37.132Z,1028.54
2016-11-28T04:02:02.794Z,1028.51
2016-11-28T04:02:28.395Z,1028.5
2016-11-28T04:02:53.939Z,1028.55
2016-11-28T04:03:20.188Z,1028.52
2016-11-28T04:03:45.738Z,1028.54
2016-11-28T04:04:11.283Z,1028.49
2016-11-28T04:04:37.001Z,1028.54
2016-11-28T04:05:02.553Z,1028.54
2016-11-28T04:05:28.100Z,1028.54
2016-11-28T04:05:55.172Z,1028.56
2016-11-28T04:06:20.735Z,1028.53
2016-11-28T04:06:46.351Z,1028.55
2016-11-28T04:07:11.832Z,1028.56
2016-11-28T04:07:37.519Z,1028.58
2016-11-28T04:08:03.054Z,1028.56
2016-11-28T04:08:28.593Z,1028.57
2016-11-28T04:08:54.169Z,1028.55
2016-11-28T04:09:19.732Z,1028.55
2016-11-28T04:09:45.287Z,1028.58
2016-11-28T04:10:10.831Z,1028.56
2016-11-28T04:10:36.406Z,1028.54
2016-11-28T04:11:01.977Z,1028.57
2016-11-28T04:11:27.526Z,1028.58
2016-11-28T04:11:53.075Z,1028.54
2016-11-28T04:12:18.617Z,1028.57
2016-11-28T04:12:44.279Z,1028.57
2016-11-28T04:13:09.839Z,1028.51
2016-11-28T04:13:35.469Z,1028.52
2016-11-28T04:14:01.092Z,1028.56
2016-11-28T04:14:26.661Z,1028.56
2016-11-28T04:14:52.201Z,1028.57
2016-11-28T04:15:17.759Z,1028.52
2016-11-28T04:15:43.317Z,1028.56
2016-11-28T04:16:08.877Z,1028.52
2016-11-28T04:16:34.448Z,1028.52
2016-11-28T04:17:00.011Z,1028.55
2016-11-28T04:17:25.631Z,1028.49
2016-11-28T04:17:51.170Z,1028.54
2016-11-28T04:18:17.172Z,1028.57
2016-11-28T04:18:42.897Z,1028.51
2016-11-28T04:19:08.425Z,1028.54
2016-11-28T04:19:33.960Z,1028.57
2016-11-28T04:19:59.511Z,1028.57
2016-11-28T04:20:25.054Z,1028.55
2016-11-28T04:20:50.596Z,1028.6
2016-11-28T04:21:16.155Z,1028.56
2016-11-28T04:21:41.699Z,1028.58
2016-11-28T04:22:07.252Z,1028.6
2016-11-28T04:22:32.798Z,1028.62
2016-11-28T04:22:58.364Z,1028.6
2016-11-28T04:23:23.923Z,1028.63
2016-11-28T04:23:49.454Z,1028.63
2016-11-28T04:24:14.976Z,1028.63
2016-11-28T04:24:40.513Z,1028.64
2016-11-28T04:25:06.023Z,1028.63
2016-11-28T04:25:31.578Z,1028.61
2016-11-28T04:25:57.164Z,1028.58
2016-11-28T04:26:22.797Z,1028.63
2016-11-28T04:26:48.324Z,1028.58
2016-11-28T04:27:13.849Z,1028.6
2016-11-28T04:27:39.374Z,1028.63
2016-11-28T04:28:04.910Z,1028.64
2016-11-28T04:28:30.533Z,1028.66
2016-11-28T04:28:56.119Z,1028.64
2016-11-28T04:29:21.646Z,1028.64
2016-11-28T04:29:47.151Z,1028.69
2016-11-28T04:30:12.679Z,1028.66
2016-11-28T04:30:38.206Z,1028.69
2016-11-28T04:31:03.762Z,1028.66
2016-11-28T04:31:29.271Z,1028.66
2016-11-28T04:31:54.809Z,1028.64
2016-11-28T04:32:20.379Z,1028.65
2016-11-28T04:32:45.911Z,1028.72
2016-11-28T04:33:11.421Z,1028.68
2016-11-28T04:33:36.943Z,1028.69
2016-11-28T04:34:02.540Z,1028.64
2016-11-28T04:34:28.062Z,1028.68
2016-11-28T04:34:53.587Z,1028.69
2016-11-28T04:35:19.125Z,1028.66
2016-11-28T04:35:44.720Z,1028.7
2016-11-28T04:36:10.251Z,1028.73
2016-11-28T04:36:35.809Z,1028.7
2016-11-28T04:37:01.366Z,1028.73
2016-11-28T04:37:26.867Z,1028.7
2016-11-28T04:37:52.397Z,1028.71
2016-11-28T04:38:17.930Z,1028.7
2016-11-28T04:38:43.459Z,1028.73
2016-11-28T04:39:09.001Z,1028.74
2016-11-28T04:39:34.679Z,1028.79
2016-11-28T04:40:00.230Z,1028.79
2016-11-28T04:40:25.763Z,1028.78
2016-11-28T04:40:51.288Z,1028.75
2016-11-28T04:41:16.824Z,1028.79
2016-11-28T04:41:42.343Z,1028.8
2016-11-28T04:42:07.871Z,1028.82
2016-11-28T04:42:33.406Z,1028.85
2016-11-28T04:42:59.085Z,1028.85
2016-11-28T04:43:24.617Z,1028.88
2016-11-28T04:43:50.128Z,1028.85
2016-11-28T04:44:15.680Z,1028.89
2016-11-28T04:44:41.245Z,1028.86
2016-11-28T04:45:06.803Z,1028.92
2016-11-28T04:45:32.389Z,1028.88
2016-11-28T04:45:57.940Z,1028.9
2016-11-28T04:46:23.517Z,1028.88
2016-11-28T04:46:49.058Z,1028.95
2016-11-28T04:47:14.586Z,1028.95
2016-11-28T04:47:40.114Z,1028.95
2016-11-28T04:48:05.698Z,1028.99
2016-11-28T04:48:31.254Z,1028.97
2016-11-28T04:48:56.808Z,1028.97
2016-11-28T04:49:22.367Z,1028.95
2016-11-28T04:49:47.923Z,1028.98
2016-11-28T04:50:13.491Z,1028.94
2016-11-28T04:50:47.864Z,1029.01
2016-11-28T04:51:13.403Z,1029.01
2016-11-28T04:51:39.115Z,1029.03
2016-11-28T04:52:09.091Z,1029.03
2016-11-28T04:52:34.604Z,1029.06
2016-11-28T04:53:03.779Z,1029.08
2016-11-28T04:53:29.351Z,1029.06
2016-11-28T04:53:55.819Z,1029.06
2016-11-28T04:54:21.401Z,1029.09
2016-11-28T04:54:48.997Z,1029.05
2016-11-28T04:55:15.451Z,1029.07
2016-11-28T04:55:42.572Z,1029.08
2016-11-28T04:56:08.140Z,1029.13
2016-11-28T04:56:43.935Z,1029.06
2016-11-28T09:54:21.739Z,1033.02
2016-11-28T09:55:24.916Z,1033.03
2016-11-28T09:55:58.709Z,1033.02
2016-11-28T09:56:32.204Z,1033.01
2016-11-28T09:57:05.318Z,1033.03
2016-11-28T09:58:15.148Z,1033.04
2016-11-28T09:59:37.836Z,1033.05
2016-11-28T10:00:11.621Z,1033.07
2016-11-28T10:00:44.812Z,1033.05
2016-11-28T10:02:01.224Z,1033.03
2016-11-28T10:02:34.799Z,1033.07
2016-11-28T10:03:08.276Z,1033.09
2016-11-28T10:03:41.695Z,1033.1
2016-11-28T10:04:15.142Z,1033.09
2016-11-28T10:04:48.596Z,1033.06
2016-11-28T10:05:22.050Z,1033.05
2016-11-28T10:06:31.708Z,1033.06
2016-11-28T10:07:04.679Z,1033.05
2016-11-28T10:07:36.210Z,1033.08
2016-11-28T10:08:58.052Z,1033.07
2016-11-28T10:10:07.608Z,1033.17
2016-11-28T10:12:19.975Z,1033.18
2016-11-28T10:13:29.255Z,1033.16
2016-11-28T10:14:45.776Z,1033.2
2016-11-28T10:15:19.161Z,1033.23
2016-11-28T10:15:52.632Z,1033.16
2016-11-28T10:18:48.107Z,1033.16
2016-11-28T10:20:53.856Z,1033.11
2016-11-28T10:21:26.603Z,1033.05
2016-11-28T10:22:29.963Z,1033.09
2016-11-28T10:23:03.389Z,1033.06
2016-11-28T10:24:25.855Z,1033.09
2016-11-28T10:24:58.965Z,1033.06
2016-11-28T10:25:32.536Z,1033.12
2016-11-28T10:26:48.834Z,1033.12
2016-11-28T10:27:22.259Z,1033.13
2016-11-28T10:28:38.497Z,1033.16
2016-11-28T10:29:11.946Z,1033.13
2016-11-28T10:29:45.376Z,1033.15
2016-11-28T10:31:57.312Z,1033.14
2016-11-28T10:32:30.506Z,1033.13
2016-11-28T10:33:00.340Z,1033.17
2016-11-28T10:33:32.668Z,1033.16
2016-11-28T10:34:05.955Z,1033.14
2016-11-28T10:34:39.535Z,1033.19
2016-11-28T10:36:09.046Z,1033.17
2016-11-28T10:36:42.325Z,1033.21
2016-11-28T10:37:15.805Z,1033.18
2016-11-28T10:38:24.735Z,1033.21
2016-11-28T10:39:27.694Z,1033.2
2016-11-28T10:40:01.392Z,1033.19
2016-11-28T10:42:49.571Z,1033.17
2016-11-28T10:43:22.589Z,1033.15
2016-11-28T10:44:25.242Z,1033.17
2016-11-28T10:45:33.711Z,1033.18
2016-11-28T10:46:42.954Z,1033.18
2016-11-28T10:49:00.944Z,1033.19
2016-11-28T10:49:33.629Z,1033.2
2016-11-28T10:50:06.809Z,1033.2
2016-11-28T10:50:37.491Z,1033.2
2016-11-28T10:52:59.576Z,1033.23
2016-11-28T10:54:02.653Z,1033.15
2016-11-28T10:55:09.969Z,1033.16
2016-11-28T10:56:26.163Z,1033.17
2016-11-28T10:58:38.654Z,1033.15
2016-11-28T10:59:11.846Z,1033.15
2016-11-28T11:02:07.074Z,1033.15
2016-11-28T11:02:37.257Z,1033.16
2016-11-28T11:03:10.042Z,1033.14
2016-11-28T11:04:19.044Z,1033.15
2016-11-28T11:04:52.515Z,1033.19
2016-11-28T11:05:25.541Z,1033.14
2016-11-28T11:06:28.877Z,1033.15
2016-11-28T11:07:01.856Z,1033.14
2016-11-28T11:08:11.841Z,1033.11
2016-11-28T11:08:45.280Z,1033.12
2016-11-28T11:09:54.825Z,1033.18
2016-11-28T11:11:10.874Z,1033.13
2016-11-28T11:11:44.306Z,1033.13
2016-11-28T11:12:17.700Z,1033.13
2016-11-28T11:13:40.123Z,1033.12
2016-11-28T11:16:49.030Z,1033.08
2016-11-28T11:17:58.459Z,1033.1
2016-11-28T11:20:16.056Z,1033.14
2016-11-28T11:23:30.578Z,1033.19
2016-11-28T11:24:04.172Z,1033.19
2016-11-28T11:24:37.536Z,1033.19
2016-11-28T11:25:10.905Z,1033.18
2016-11-28T11:25:44.200Z,1033.22
2016-11-28T11:26:53.122Z,1033.23
2016-11-28T11:27:56.474Z,1033.2
2016-11-28T11:30:02.282Z,1033.23
2016-11-28T11:31:25.141Z,1033.19
2016-11-28T11:32:34.810Z,1033.24
2016-11-28T11:33:08.274Z,1033.21
2016-11-28T11:33:41.755Z,1033.16
2016-11-28T11:34:15.049Z,1033.24
2016-11-28T11:34:48.429Z,1033.21
